Aérodrome :
LOGIN :

S'inscrire | Disclaimer

   EN    FR    IT 

 










Légende :    VFR   VFR Marginal   IFR   IFR Intensif   IFR Très Intensif
Visi : 
Plafond : 
>= 8 km
>= 3000ft
5 à 8 km
1000 à 3000 ft
1500m à 5 km
500 à 1000 ft
800 à 1500m
200 à 500 ft
< 800m
< 200 ft
Symboles :   Orages  Brouillard  Fortes neiges  Fortes précipitations  Vent > 20 kt
SIGMETs :   Divers  Orages  Givrage  Turbulence  Onde Orograph.  Cendres Volcan.






- Altitude de l'aérodrome : 355 ft
- Code IATA : VBS


LIPO - Montichiari - Brescia

DERNIER METAR :
  • 181950Z 20001KT 0300 R32/0225 FG BKN002 06/06 Q1023

METARs EXPIRÉS :
  • 181850Z 02001KT 0400 R32/0400 FG BKN006 06/06 Q1023
  • 181750Z 28005KT 0600 R32/0900 FG BKN006 06/06 Q1023

TAF AMD TAF LIPO
Valide du 18 à 18h jusqu'au 19 à 18h UTC


181807Z 1818/1918 VRB05KT 2500 BR SCT005 BKN020
TEMPO 1818/1824 0500 FG BKN005
TEMPO 1900/1914 DZ



MET'MAP, la Météo Aéronautique d'un coup d'oeil ! - Copyright ORBIFLY Décembre 2007 - Disclaimer

ORBIFLY MET'MAP TEAM :

Programmation & Développement : Alexandra Zaïnal
Sur une idée originale de : Baudouin d'Aumeries
Assistance à la programmation : Marc-Olivier Méhu
Soutien technique & logistique : Manuel Goepfert

Contact : metmap@orbifly.com




SOURCES & CREDITS :

   NOAA